createdAt,value
2023-08-12T00:04:09.106Z,52
2023-08-12T00:16:08.996Z,52.5
2023-08-12T00:28:09.060Z,52.5
2023-08-12T00:40:09.100Z,53
2023-08-12T00:52:09.091Z,53
2023-08-12T01:04:09.064Z,53.5
2023-08-12T01:16:09.206Z,53.5
2023-08-12T01:28:09.151Z,54
2023-08-12T01:40:09.119Z,54
2023-08-12T01:52:09.048Z,54.5
2023-08-12T02:04:09.215Z,54.5
2023-08-12T02:16:09.192Z,54.5
2023-08-12T02:28:09.152Z,55
2023-08-12T02:40:09.087Z,55
2023-08-12T02:52:09.305Z,55
2023-08-12T03:04:09.210Z,55.5
2023-08-12T03:16:09.199Z,55.5
2023-08-12T03:28:09.355Z,55.5
2023-08-12T03:40:09.325Z,56
2023-08-12T03:52:09.230Z,56
2023-08-12T04:04:11.085Z,56
2023-08-12T04:16:09.389Z,56.5
2023-08-12T04:28:09.352Z,56.5
2023-08-12T04:40:09.272Z,56.5
2023-08-12T04:52:09.284Z,57
2023-08-12T05:04:09.394Z,57
2023-08-12T05:16:09.380Z,57
2023-08-12T05:28:09.331Z,57.5
2023-08-12T05:40:09.562Z,57.5
2023-08-12T05:52:09.450Z,57.5
2023-08-12T06:04:09.455Z,58
2023-08-12T06:16:09.381Z,58
2023-08-12T06:28:09.538Z,58
2023-08-12T06:40:09.486Z,58
2023-08-12T06:52:09.520Z,58
2023-08-12T07:04:09.428Z,58.5
2023-08-12T07:16:09.756Z,58.5
2023-08-12T07:28:09.517Z,59
2023-08-12T07:40:09.537Z,59.5
2023-08-12T07:52:09.610Z,59.5
2023-08-12T08:04:09.706Z,60
2023-08-12T08:16:09.773Z,60
2023-08-12T08:28:09.525Z,60
2023-08-12T08:40:09.707Z,60.5
2023-08-12T08:52:09.915Z,61.5
2023-08-12T09:16:09.646Z,63
2023-08-12T09:28:09.529Z,63
2023-08-12T09:40:09.788Z,63.5
2023-08-12T09:52:09.823Z,64
2023-08-12T10:04:09.624Z,64
2023-08-12T10:16:09.632Z,63.5
2023-08-12T10:28:09.740Z,63
2023-08-12T10:40:09.670Z,63.5
2023-08-12T10:52:09.689Z,63
2023-08-12T11:04:09.599Z,63.5
2023-08-12T11:16:09.846Z,63
2023-08-12T11:28:09.711Z,63
2023-08-12T11:40:09.735Z,62
2023-08-12T11:52:09.722Z,61.5
2023-08-12T12:04:09.833Z,60.5
2023-08-12T12:16:09.765Z,64.5
2023-08-12T12:28:10.032Z,61.5
2023-08-12T12:40:09.843Z,58.5
2023-08-12T12:52:09.841Z,58
2023-08-12T13:04:09.794Z,56.5
2023-08-12T13:16:09.759Z,55.5
2023-08-12T13:28:09.885Z,54
2023-08-12T13:40:09.871Z,51.5
2023-08-12T13:52:09.828Z,53
2023-08-12T14:04:10.191Z,50
2023-08-12T14:16:09.910Z,47.5
2023-08-12T14:28:09.931Z,47
2023-08-12T14:40:09.913Z,47
2023-08-12T14:52:10.015Z,46
2023-08-12T15:04:09.941Z,46
2023-08-12T15:16:09.967Z,45
2023-08-12T15:28:09.857Z,44.5
2023-08-12T15:40:10.066Z,45
2023-08-12T15:52:10.339Z,47.5
2023-08-12T16:04:09.996Z,49.5
2023-08-12T16:16:10.155Z,49.5
2023-08-12T16:28:10.071Z,50
2023-08-12T16:40:10.078Z,49.5
2023-08-12T16:52:10.200Z,49.5
2023-08-12T17:04:10.129Z,50
2023-08-12T17:16:10.130Z,50
2023-08-12T17:28:10.033Z,51
2023-08-12T17:40:10.022Z,51.5
2023-08-12T17:52:10.176Z,53
2023-08-12T18:04:10.126Z,54.5
2023-08-12T18:16:10.109Z,54
2023-08-12T18:28:10.237Z,56.5
2023-08-12T18:40:10.175Z,57
2023-08-12T18:52:10.191Z,56
2023-08-12T19:04:10.107Z,57
2023-08-12T19:16:10.303Z,56.5
2023-08-12T19:28:10.194Z,57
2023-08-12T19:40:10.209Z,58
2023-08-12T19:52:10.155Z,58
2023-08-12T20:04:10.340Z,57.5
2023-08-12T20:16:10.272Z,57.5
2023-08-12T20:28:10.256Z,58
2023-08-12T20:40:10.359Z,58
2023-08-12T20:52:10.456Z,58.5
2023-08-12T21:04:10.285Z,59
2023-08-12T21:16:10.329Z,59
2023-08-12T21:28:10.375Z,59.5
2023-08-12T21:40:10.390Z,59.5
2023-08-12T21:52:10.340Z,60
2023-08-12T22:04:10.316Z,60.5
2023-08-12T22:16:10.439Z,60.5
2023-08-12T22:28:10.411Z,60.5
2023-08-12T22:40:10.394Z,60.5
2023-08-12T22:52:10.549Z,60
2023-08-12T23:04:10.481Z,60
2023-08-12T23:16:10.474Z,60
2023-08-12T23:28:10.354Z,60
2023-08-12T23:40:10.792Z,60
2023-08-12T23:52:10.481Z,60.5
